European Seaway — MPDG3 — position and weather

sailwx.info

Track history (hours):
 
Tides and Currents Weather Stations Pressure Air Temp Water Temp Dewpoint Dewpoint Depression Visibility Wind Speed Wind Dir Waves Ship Positions

European Seaway

Operator: P & O Ferries

Last reported at 2019-Mar-22 11:58 UTC. Time now 2019-Mar-22 12:03 UTC.
Position N 51°07' E 001°20'.

Length 180 m; draft 5.5 m.

Type: Ship. MMSI: 232001040.

Date/timePositionNaut miles runAvg speedWind from/ knotsBaromVisibWave heightAir tempDewpointWater temp
2019-Mar-22 11:58N 51°07' E 001°20'816.3
2019-Mar-22 11:30N 51°05' E 001°32'918.6
2019-Mar-22 11:00N 50°59' E 001°43'510.9
2019-Mar-22 10:30N 50°58' E 001°52'0 0.0
2019-Mar-22 10:00N 50°58' E 001°52'1 1.2
2019-Mar-22 09:30N 50°58' E 001°51'917.1
2019-Mar-22 09:00N 50°59' E 001°37'1019.2
2019-Mar-22 08:30N 51°05' E 001°25'6 2.9
2019-Mar-22 06:31N 51°03' E 001°34'1019.7
2019-Mar-22 06:00N 50°58' E 001°47'2 4.6
2019-Mar-22 05:30N 50°58' E 001°51'0 0.0
2019-Mar-22 05:00N 50°58' E 001°51'0 0.4
2019-Mar-22 04:30N 50°58' E 001°51'816.3
2019-Mar-22 04:00N 50°59' E 001°38'1019.3
2019-Mar-22 03:30N 51°05' E 001°25'4 2.7
2019-Mar-22 02:05N 51°07' E 001°21'111.7
2019-Mar-22 02:00N 51°07' E 001°22'816.6
2019-Mar-22 01:30N 51°04' E 001°34'816.9
2019-Mar-22 01:00N 50°59' E 001°44'5 9.2
2019-Mar-22 00:30N 50°58' E 001°52'0 0.0
2019-Mar-22 00:00N 50°58' E 001°52'1 2.3
2019-Mar-21 23:30N 50°58' E 001°50'1020.1
2019-Mar-21 23:00N 51°01' E 001°34'1119.4
2019-Mar-21 22:28N 51°07' E 001°21'0 0.4
2019-Mar-21 21:22N 51°07' E 001°20'616.3
2019-Mar-21 21:00N 51°05' E 001°29'1020.0
2019-Mar-21 20:31N 50°59' E 001°41'612.2
2019-Mar-21 20:00N 50°58' E 001°51'0 0.0
2019-Mar-21 19:30N 50°58' E 001°51'0 0.2
2019-Mar-21 19:00N 50°58' E 001°51'714.7
2019-Mar-21 18:30N 50°59' E 001°39'1019.0
2019-Mar-21 18:00N 51°04' E 001°27'510.8
2019-Mar-21 17:30N 51°07' E 001°20'0 0.1
2019-Mar-21 16:41N 51°07' E 001°20'213.4
2019-Mar-21 16:30N 51°07' E 001°24'1019.5
2019-Mar-21 16:00N 51°01' E 001°37'918.3
2019-Mar-21 15:30N 50°58' E 001°50'0 0.9
2019-Mar-21 15:00N 50°58' E 001°51'0 0.0
2019-Mar-21 14:30N 50°58' E 001°51'713.9
2019-Mar-21 14:01N 50°59' E 001°40'1019.8
2019-Mar-21 13:30N 51°05' E 001°27'5 8.7
2019-Mar-21 12:54N 51°07' E 001°20'0 0.2
2019-Mar-21 12:13N 51°07' E 001°20'313.7
2019-Mar-21 12:01N 51°06' E 001°25'918.6
2019-Mar-21 11:31N 51°01' E 001°37'816.4
2019-Mar-21 11:01N 50°58' E 001°49'2 3.2
2019-Mar-21 10:30N 50°58' E 001°52'0 0.0
2019-Mar-21 10:00N 50°58' E 001°52'4 8.5
2019-Mar-21 09:30N 50°58' E 001°45'918.9
2019-Mar-21 09:00N 51°01' E 001°31'918.0
2019-Mar-21 08:30N 51°07' E 001°20'0 0.0
2019-Mar-21 07:11N 51°07' E 001°20'315.4
2019-Mar-21 07:00N 51°07' E 001°24'919.0
2019-Mar-21 06:31N 51°02' E 001°37'918.1
2019-Mar-21 06:00N 50°58' E 001°50'0 0.9
2019-Mar-21 05:30N 50°58' E 001°51'0 0.0
2019-Mar-21 05:00N 50°58' E 001°51'3 5.2
2019-Mar-21 04:30N 50°58' E 001°47'917.4
2019-Mar-21 04:00N 50°60' E 001°33'918.4
2019-Mar-21 03:30N 51°06' E 001°23'2 1.4
2019-Mar-21 02:07N 51°07' E 001°20'110.3
2019-Mar-21 01:59N 51°07' E 001°22'816.8
2019-Mar-21 01:30N 51°04' E 001°34'816.7
2019-Mar-21 01:00N 50°59' E 001°44'4 8.3
2019-Mar-21 00:30N 50°58' E 001°51'0 0.0
2019-Mar-21 00:00N 50°58' E 001°51'3 5.2
2019-Mar-20 23:30N 50°58' E 001°47'1020.5
2019-Mar-20 23:01N 51°01' E 001°31'9 6.2
2019-Mar-20 21:30N 51°07' E 001°20'917.4
2019-Mar-20 21:00N 51°03' E 001°32'1019.8
2019-Mar-20 20:30N 50°58' E 001°46'3 6.6
2019-Mar-20 20:01N 50°58' E 001°51'0 0.0
2019-Mar-20 19:30N 50°58' E 001°51'3 5.2
2019-Mar-20 19:00N 50°58' E 001°47'817.0
2019-Mar-20 18:30N 50°59' E 001°34'1019.4
2019-Mar-20 18:00N 51°06' E 001°23'2 1.5
2019-Mar-20 16:46N 51°07' E 001°20'415.3
2019-Mar-20 16:30N 51°06' E 001°26'1019.6
2019-Mar-20 16:00N 51°00' E 001°39'815.5
2019-Mar-20 15:31N 50°58' E 001°51'0 0.3
2019-Mar-20 15:00N 50°58' E 001°51'0 0.1
2019-Mar-20 14:30N 50°58' E 001°51'816.1
2019-Mar-20 14:01N 50°59' E 001°38'1019.6
2019-Mar-20 13:30N 51°05' E 001°25'4 3.0
2019-Mar-20 12:08N 51°07' E 001°20'211.8
2019-Mar-20 12:00N 51°07' E 001°23'917.8
2019-Mar-20 11:30N 51°04' E 001°36'917.7
2019-Mar-20 11:00N 50°58' E 001°47'3 6.4
2019-Mar-20 10:30N 50°58' E 001°52'0 0.0
2019-Mar-20 09:59N 50°58' E 001°52'1 3.1
2019-Mar-20 09:30N 50°58' E 001°49'1020.2
2019-Mar-20 09:00N 50°60' E 001°33'919.0
2019-Mar-20 08:30N 51°06' E 001°23'2 1.1
2019-Mar-20 07:02N 51°07' E 001°20'0 9.6
2019-Mar-20 07:00N 51°07' E 001°21'1019.3
2019-Mar-20 06:30N 51°03' E 001°34'1019.5
2019-Mar-20 06:00N 50°58' E 001°48'2 1.9
2019-Mar-20 05:00N 50°58' E 001°51'2 3.4
2019-Mar-20 04:30N 50°58' E 001°48'917.5
2019-Mar-20 04:01N 50°60' E 001°35'1019.3
2019-Mar-20 03:31N 51°06' E 001°23'2 1.6
2019-Mar-20 02:07N 51°07' E 001°20'0 2.4
2019-Mar-20 02:00N 51°07' E 001°21'816.9
2019-Mar-20 01:30N 51°03' E 001°33'816.9
2019-Mar-20 01:01N 50°59' E 001°44'5 9.0
2019-Mar-20 00:30N 50°58' E 001°51'0 0.0
2019-Mar-20 00:00N 50°58' E 001°51'0 0.0
2019-Mar-19 23:30N 50°58' E 001°51'2 3.3
2019-Mar-19 23:00N 50°58' E 001°48'1019.5
2019-Mar-19 22:31N 51°00' E 001°33'917.8
2019-Mar-19 22:01N 51°06' E 001°23'2 1.6
2019-Mar-19 20:53N 51°07' E 001°20'513.5
2019-Mar-19 20:31N 51°05' E 001°27'1020.1
2019-Mar-19 20:00N 50°60' E 001°41'612.9
2019-Mar-19 19:30N 50°58' E 001°51'0 0.0
2019-Mar-19 19:00N 50°58' E 001°51'3 5.5
2019-Mar-19 18:30N 50°58' E 001°47'917.9
2019-Mar-19 18:00N 51°02' E 001°34'1019.1
2019-Mar-19 17:30N 51°07' E 001°21'1 0.6
2019-Mar-19 16:32N 51°07' E 001°20'0 2.8
2019-Mar-19 16:28N 51°07' E 001°20'918.9
2019-Mar-19 16:00N 51°04' E 001°33'1020.0
2019-Mar-19 15:31N 50°58' E 001°46'3 5.9
2019-Mar-19 15:00N 50°58' E 001°51'0 0.0
2019-Mar-19 14:30N 50°58' E 001°51'0 0.7
2019-Mar-19 14:00N 50°58' E 001°51'917.3
2019-Mar-19 13:30N 51°00' E 001°37'1020.2
2019-Mar-19 13:01N 51°05' E 001°23'3 2.2
2019-Mar-19 11:45N 51°07' E 001°20'312.0
2019-Mar-19 11:30N 51°07' E 001°25'918.9
2019-Mar-19 11:00N 51°02' E 001°37'816.6
2019-Mar-19 10:31N 50°58' E 001°49'1 2.1
2019-Mar-19 10:00N 50°58' E 001°51'0 0.0
2019-Mar-19 09:30N 50°58' E 001°51'611.1
2019-Mar-19 09:01N 50°58' E 001°42'918.4
2019-Mar-19 08:31N 51°03' E 001°30'8 6.8
2019-Mar-19 07:24N 51°07' E 001°20'0 0.3
2019-Mar-19 07:00N 51°07' E 001°20'918.1
2019-Mar-19 06:30N 51°03' E 001°33'1019.9
2019-Mar-19 06:00N 50°58' E 001°47'3 5.4
2019-Mar-19 05:30N 50°58' E 001°51'0 0.0
2019-Mar-19 05:00N 50°58' E 001°51'1 1.8
2019-Mar-19 04:31N 50°58' E 001°50'917.3
2019-Mar-19 04:01N 51°01' E 001°36'1019.9
2019-Mar-19 03:31N 51°06' E 001°23'2 1.6
2019-Mar-19 02:06N 51°07' E 001°20'0 0.8
2019-Mar-19 02:00N 51°07' E 001°20'816.2
2019-Mar-19 01:30N 51°05' E 001°33'816.7
2019-Mar-19 01:00N 50°59' E 001°43'510.8
2019-Mar-19 00:30N 50°58' E 001°51'0 0.0
2019-Mar-19 00:00N 50°58' E 001°51'0 0.1
2019-Mar-18 23:30N 50°58' E 001°51'816.8
2019-Mar-18 23:00N 50°59' E 001°38'1019.9
2019-Mar-18 22:30N 51°05' E 001°25'4 2.8
2019-Mar-18 21:07N 51°07' E 001°20'1 6.0
2019-Mar-18 20:59N 51°07' E 001°21'817.3
2019-Mar-18 20:30N 51°04' E 001°33'919.0
2019-Mar-18 20:01N 50°58' E 001°45'4 7.0
2019-Mar-18 19:30N 50°58' E 001°51'0 0.0
2019-Mar-18 19:00N 50°58' E 001°51'510.6
2019-Mar-18 18:30N 50°58' E 001°43'816.8
2019-Mar-18 18:00N 51°02' E 001°30'816.9
2019-Mar-18 17:30N 51°07' E 001°20'0 0.1
2019-Mar-18 16:40N 51°07' E 001°20'211.5
2019-Mar-18 16:31N 51°07' E 001°23'917.8
2019-Mar-18 16:01N 51°01' E 001°34'918.2
2019-Mar-18 15:30N 50°58' E 001°48'2 3.9
2019-Mar-18 15:00N 50°58' E 001°51'0 0.0
2019-Mar-18 14:30N 50°58' E 001°51'5 9.1
2019-Mar-18 14:00N 50°58' E 001°44'917.6
2019-Mar-18 13:30N 51°02' E 001°31'917.7
2019-Mar-18 13:01N 51°07' E 001°20'1 0.6
2019-Mar-18 12:00N 51°07' E 001°20'714.8
2019-Mar-18 11:30N 51°04' E 001°31'816.9
2019-Mar-18 11:00N 50°60' E 001°42'611.2
2019-Mar-18 10:29N 50°58' E 001°51'0 0.0
2019-Mar-18 10:00N 50°58' E 001°51'0 0.9
2019-Mar-18 09:30N 50°58' E 001°50'918.8
2019-Mar-18 09:00N 50°58' E 001°35'918.1
2019-Mar-18 08:30N 51°04' E 001°25'4 4.0
2019-Mar-18 07:27N 51°07' E 001°20'1 2.1
2019-Mar-18 07:00N 51°07' E 001°22'918.5
2019-Mar-18 06:30N 51°03' E 001°34'918.5
2019-Mar-18 06:00N 50°58' E 001°47'3 6.3
2019-Mar-18 05:30N 50°58' E 001°52'0 0.0
2019-Mar-18 05:00N 50°58' E 001°52'3 6.4
2019-Mar-18 04:31N 50°58' E 001°47'917.5
2019-Mar-18 04:00N 51°01' E 001°34'10 6.3
2019-Mar-18 02:21N 51°07' E 001°20'616.1
2019-Mar-18 02:01N 51°05' E 001°28'918.9
2019-Mar-18 01:31N 50°60' E 001°41'714.0
2019-Mar-18 01:01N 50°58' E 001°52'0 0.2
2019-Mar-18 00:30N 50°58' E 001°52'0 0.0
2019-Mar-18 00:00N 50°58' E 001°52'0 0.0
2019-Mar-17 23:30N 50°58' E 001°52'4 8.2
2019-Mar-17 23:00N 50°58' E 001°45'917.8
2019-Mar-17 22:31N 51°01' E 001°32'10 6.2
2019-Mar-17 20:56N 51°07' E 001°20'715.5
2019-Mar-17 20:31N 51°06' E 001°30'918.1
2019-Mar-17 20:00N 50°60' E 001°41'713.3
2019-Mar-17 19:30N 50°58' E 001°51'0 0.1
2019-Mar-17 19:00N 50°58' E 001°51'3 6.2
2019-Mar-17 18:30N 50°58' E 001°46'918.6
2019-Mar-17 18:00N 51°01' E 001°32'1018.4
2019-Mar-17 17:29N 51°07' E 001°20'0 0.1
2019-Mar-17 16:31N 51°07' E 001°20'815.9
2019-Mar-17 16:00N 51°04' E 001°32'919.0
2019-Mar-17 15:31N 50°59' E 001°44'4 8.9
2019-Mar-17 15:00N 50°58' E 001°51'0 0.0
2019-Mar-17 14:30N 50°58' E 001°51'0 0.9
2019-Mar-17 14:01N 50°58' E 001°50'917.1
2019-Mar-17 13:31N 50°60' E 001°37'1020.2
2019-Mar-17 13:00N 51°06' E 001°24'3 2.7
2019-Mar-17 11:59N 51°07' E 001°20'715.4
2019-Mar-17 11:31N 51°04' E 001°31'918.5
2019-Mar-17 11:01N 50°59' E 001°43'510.1
2019-Mar-17 10:29N 50°58' E 001°51'0 0.0
2019-Mar-17 10:00N 50°58' E 001°51'4 8.3
2019-Mar-17 09:30N 50°59' E 001°45'1 2.2
2019-Mar-17 08:59N 51°00' E 001°46'0 0.0
2019-Mar-17 08:29N 51°00' E 001°46'0 0.0
2019-Mar-17 07:59N 51°00' E 001°46'0 0.0
2019-Mar-17 07:26N 51°00' E 001°46'0 0.1
2019-Mar-17 06:59N 51°00' E 001°46'0 0.1
2019-Mar-17 06:29N 51°00' E 001°46'0 0.1
2019-Mar-17 05:59N 51°00' E 001°46'0 0.1
2019-Mar-17 05:29N 51°00' E 001°46'0 0.0
2019-Mar-17 04:59N 51°00' E 001°46'0 0.2
2019-Mar-17 04:30N 51°00' E 001°46'2 5.0
2019-Mar-17 04:01N 50°58' E 001°48'3 5.3
2019-Mar-17 03:30N 50°58' E 001°52'0 0.0
2019-Mar-17 03:00N 50°58' E 001°52'0 0.0
2019-Mar-17 02:30N 50°58' E 001°52'0 0.0
2019-Mar-17 02:00N 50°58' E 001°52'0 0.0
2019-Mar-17 01:30N 50°58' E 001°52'0 0.5
2019-Mar-17 01:00N 50°58' E 001°52'0 0.2
2019-Mar-17 00:30N 50°58' E 001°51'4 8.6
2019-Mar-17 00:00N 50°58' E 001°45'3 6.0
2019-Mar-16 23:31N 50°58' E 001°40'5 9.0
2019-Mar-16 23:00N 51°01' E 001°35'918.2
2019-Mar-16 22:30N 51°06' E 001°23'2 1.4
2019-Mar-16 21:01N 51°07' E 001°20'0 0.8
2019-Mar-16 20:56N 51°07' E 001°20'4 8.8
2019-Mar-16 20:30N 51°08' E 001°26'3 6.7
2019-Mar-16 20:01N 51°06' E 001°29'917.5
2019-Mar-16 19:31N 51°01' E 001°40'714.3
2019-Mar-16 19:01N 50°58' E 001°51'0 1.0
2019-Mar-16 18:30N 50°58' E 001°52'0 0.0
2019-Mar-16 18:00N 50°58' E 001°52'3 6.3
2019-Mar-16 17:30N 50°58' E 001°47'4 7.8
2019-Mar-16 17:00N 50°58' E 001°41'816.1
2019-Mar-16 16:31N 51°03' E 001°30'8 4.3
2019-Mar-16 14:45N 51°07' E 001°20'2 9.7
2019-Mar-16 14:31N 51°07' E 001°24'1 2.6
2019-Mar-16 14:00N 51°07' E 001°26'3 6.6
2019-Mar-16 13:30N 51°06' E 001°31'612.6
2019-Mar-16 13:00N 51°01' E 001°37'816.3
2019-Mar-16 12:30N 50°58' E 001°49'1 2.9
2019-Mar-16 12:00N 50°58' E 001°52'0 0.0
2019-Mar-16 11:30N 50°58' E 001°52'3 6.3
2019-Mar-16 11:01N 50°58' E 001°47'918.6
2019-Mar-16 10:30N 51°01' E 001°33'10 6.1
2019-Mar-16 08:52N 51°07' E 001°20'3 9.1
2019-Mar-16 08:31N 51°07' E 001°25'816.1
2019-Mar-16 08:01N 51°02' E 001°36'816.7
2019-Mar-16 07:30N 50°58' E 001°48'2 4.9
2019-Mar-16 07:00N 50°58' E 001°51'0 0.0
2019-Mar-16 06:30N 50°58' E 001°51'510.2
2019-Mar-16 06:01N 50°58' E 001°43'1019.4
2019-Mar-16 05:30N 51°02' E 001°30'8 5.1
2019-Mar-16 03:56N 51°07' E 001°20'511.0
2019-Mar-16 03:30N 51°06' E 001°27'917.8
2019-Mar-16 03:00N 51°01' E 001°39'815.9
2019-Mar-16 02:30N 50°58' E 001°51'0 0.5
2019-Mar-16 02:00N 50°58' E 001°51'0 0.0
2019-Mar-16 01:30N 50°58' E 001°51'0 0.0
2019-Mar-16 01:00N 50°58' E 001°51'0 0.0
2019-Mar-16 00:31N 50°58' E 001°51'0 0.0
2019-Mar-16 00:00N 50°58' E 001°51'0 0.0
2019-Mar-15 23:30N 50°58' E 001°51'0 0.0
2019-Mar-15 23:00N 50°58' E 001°51'2 3.7
2019-Mar-15 22:30N 50°58' E 001°48'511.2
2019-Mar-15 22:00N 50°59' E 001°39'1019.4
2019-Mar-15 21:30N 51°05' E 001°27'5 2.6
2019-Mar-15 19:36N 51°07' E 001°20'1 7.5
2019-Mar-15 19:29N 51°07' E 001°21'817.3
2019-Mar-15 19:00N 51°03' E 001°33'816.8
2019-Mar-15 18:30N 50°58' E 001°44'5 9.6
2019-Mar-15 18:00N 50°58' E 001°52'0 0.0
2019-Mar-15 17:30N 50°58' E 001°52'3 5.4
2019-Mar-15 17:01N 50°58' E 001°47'510.2
2019-Mar-15 16:30N 50°58' E 001°39'4 8.0
2019-Mar-15 16:01N 51°00' E 001°34'918.9
2019-Mar-15 15:31N 51°06' E 001°23'2 1.6
2019-Mar-15 14:23N 51°07' E 001°21'616.4
2019-Mar-15 14:00N 51°05' E 001°30'816.7
2019-Mar-15 13:30N 50°60' E 001°40'815.2
2019-Mar-15 13:00N 50°58' E 001°52'0 0.1
2019-Mar-15 12:30N 50°58' E 001°52'0 0.3
2019-Mar-15 12:00N 50°58' E 001°51'612.0
2019-Mar-15 11:31N 50°58' E 001°42'4 9.0
2019-Mar-15 11:00N 50°59' E 001°35'918.6
2019-Mar-15 10:30N 51°05' E 001°24'3 3.0
2019-Mar-15 09:22N 51°07' E 001°20'513.4
2019-Mar-15 09:00N 51°07' E 001°28'917.2
2019-Mar-15 08:30N 51°02' E 001°39'815.8
2019-Mar-15 08:00N 50°58' E 001°50'1 1.6
2019-Mar-15 07:30N 50°58' E 001°52'0 0.1
2019-Mar-15 07:00N 50°58' E 001°52'4 8.3
2019-Mar-15 06:30N 50°58' E 001°45'815.2
2019-Mar-15 06:01N 51°01' E 001°34'1018.8
2019-Mar-15 05:30N 51°07' E 001°22'1 1.0
2019-Mar-15 04:09N 51°07' E 001°20'110.2
2019-Mar-15 04:00N 51°07' E 001°22'816.3
2019-Mar-15 03:30N 51°05' E 001°35'917.9
2019-Mar-15 03:00N 50°59' E 001°44'4 8.6
2019-Mar-15 02:30N 50°58' E 001°51'0 0.0
2019-Mar-15 02:01N 50°58' E 001°51'0 0.0
2019-Mar-15 01:30N 50°58' E 001°51'0 0.0
2019-Mar-15 01:00N 50°58' E 001°51'0 0.0
2019-Mar-15 00:30N 50°58' E 001°51'0 0.0
2019-Mar-15 00:01N 50°58' E 001°51'0 0.0
2019-Mar-14 23:30N 50°58' E 001°51'0 0.0
2019-Mar-14 23:00N 50°58' E 001°51'1 2.8
2019-Mar-14 22:30N 50°58' E 001°49'917.7
2019-Mar-14 22:00N 51°00' E 001°35'918.9
2019-Mar-14 21:31N 51°06' E 001°23'2 2.1
2019-Mar-14 20:22N 51°07' E 001°20'515.1
2019-Mar-14 20:00N 51°06' E 001°28'918.4
2019-Mar-14 19:30N 51°01' E 001°41'713.9
2019-Mar-14 19:01N 50°58' E 001°51'0 0.3
2019-Mar-14 18:30N 50°58' E 001°51'0 0.0
2019-Mar-14 18:00N 50°58' E 001°51'713.9
2019-Mar-14 17:30N 50°59' E 001°40'1019.4
2019-Mar-14 17:00N 51°04' E 001°27'5 3.4
2019-Mar-14 15:23N 51°07' E 001°20'410.7
2019-Mar-14 15:01N 51°06' E 001°26'917.0
2019-Mar-14 14:31N 51°01' E 001°37'815.8
2019-Mar-14 14:00N 50°58' E 001°49'2 3.4
2019-Mar-14 13:30N 50°58' E 001°52'0 0.0
2019-Mar-14 13:00N 50°58' E 001°52'3 6.8
2019-Mar-14 12:30N 50°58' E 001°46'918.2
2019-Mar-14 12:00N 51°02' E 001°33'1018.2
2019-Mar-14 11:29N 51°07' E 001°21'0 0.4
2019-Mar-14 10:18N 51°07' E 001°20'3 9.7
2019-Mar-14 10:01N 51°06' E 001°24'816.9
2019-Mar-14 09:31N 51°02' E 001°36'816.2
2019-Mar-14 09:01N 50°58' E 001°47'3 5.8
2019-Mar-14 08:30N 50°58' E 001°52'0 0.0
2019-Mar-14 08:01N 50°58' E 001°52'1 1.2
2019-Mar-14 07:30N 50°58' E 001°51'816.2
2019-Mar-14 07:01N 50°59' E 001°38'918.7
2019-Mar-14 06:31N 51°05' E 001°26'5 2.9
2019-Mar-14 04:54N 51°07' E 001°20'614.8
2019-Mar-14 04:30N 51°05' E 001°29'917.1
2019-Mar-14 04:00N 51°00' E 001°40'714.3
2019-Mar-14 03:30N 50°58' E 001°51'0 0.9
2019-Mar-14 03:00N 50°58' E 001°51'0 0.0
2019-Mar-14 02:30N 50°58' E 001°51'2 4.9
2019-Mar-14 02:00N 50°58' E 001°48'3 5.3
2019-Mar-14 01:30N 50°58' E 001°43'3 5.2
2019-Mar-14 01:00N 50°59' E 001°39'816.3
2019-Mar-14 00:30N 51°04' E 001°29'7 4.1
2019-Mar-13 22:52N 51°07' E 001°20'615.6
2019-Mar-13 22:31N 51°05' E 001°28'918.7
2019-Mar-13 22:01N 50°60' E 001°41'713.2
2019-Mar-13 21:30N 50°58' E 001°51'0 0.0
2019-Mar-13 21:00N 50°58' E 001°51'0 0.0
2019-Mar-13 20:30N 50°58' E 001°51'5 9.9
2019-Mar-13 20:00N 50°58' E 001°43'918.9
2019-Mar-13 19:30N 51°03' E 001°30'8 4.7
2019-Mar-13 17:53N 51°07' E 001°20'514.0
2019-Mar-13 17:30N 51°05' E 001°28'917.9
2019-Mar-13 17:00N 51°00' E 001°39'815.2
2019-Mar-13 16:30N 50°58' E 001°51'0 0.4
2019-Mar-13 16:00N 50°58' E 001°51'0 0.1
2019-Mar-13 15:30N 50°58' E 001°51'816.9
2019-Mar-13 15:00N 50°60' E 001°38'918.9
2019-Mar-13 14:30N 51°06' E 001°26'4 2.6
2019-Mar-13 12:53N 51°07' E 001°20'2 5.0
2019-Mar-13 12:30N 51°07' E 001°23'3 7.0
2019-Mar-13 12:00N 51°06' E 001°28'918.0
2019-Mar-13 11:30N 51°01' E 001°40'714.7
2019-Mar-13 11:00N 50°58' E 001°51'0 0.1
2019-Mar-13 10:31N 50°58' E 001°51'0 0.3
2019-Mar-13 10:00N 50°58' E 001°51'815.5
2019-Mar-13 09:31N 50°59' E 001°39'918.9
2019-Mar-13 09:01N 51°04' E 001°26'5 2.6
2019-Mar-13 07:12N 51°07' E 001°20'2 8.6
2019-Mar-13 07:00N 51°07' E 001°23'2 3.8
2019-Mar-13 06:30N 51°06' E 001°25'815.4
2019-Mar-13 06:00N 51°02' E 001°36'816.1
2019-Mar-13 05:30N 50°58' E 001°47'3 5.3
2019-Mar-13 05:00N 50°58' E 001°51'0 0.0
2019-Mar-13 04:30N 50°58' E 001°51'0 1.0
2019-Mar-13 04:01N 50°58' E 001°50'1019.5
2019-Mar-13 03:30N 51°00' E 001°35'1019.0
2019-Mar-13 03:00N 51°06' E 001°23'2 1.5
2019-Mar-13 01:29N 51°07' E 001°20'714.4
2019-Mar-13 01:01N 51°04' E 001°30'816.6
2019-Mar-13 00:31N 50°60' E 001°41'713.5
2019-Mar-13 00:00N 50°58' E 001°52'0 0.1
2019-Mar-12 23:30N 50°58' E 001°52'0 0.0
2019-Mar-12 23:00N 50°58' E 001°52'0 0.0
2019-Mar-12 22:30N 50°58' E 001°52'0 0.0
2019-Mar-12 22:00N 50°58' E 001°52'0 0.0
2019-Mar-12 21:30N 50°58' E 001°52'0 0.0
2019-Mar-12 21:00N 50°58' E 001°52'0 0.0
2019-Mar-12 20:30N 50°58' E 001°52'1 1.3
2019-Mar-12 20:00N 50°58' E 001°51'612.9
2019-Mar-12 19:31N 50°58' E 001°40'918.2
2019-Mar-12 19:00N 51°03' E 001°28'6 4.4
2019-Mar-12 17:32N 51°07' E 001°20'0 6.1
2019-Mar-12 17:30N 51°07' E 001°20'815.6
2019-Mar-12 17:01N 51°05' E 001°32'917.2
2019-Mar-12 16:31N 50°60' E 001°43'611.5
2019-Mar-12 16:00N 50°58' E 001°52'0 0.0
2019-Mar-12 15:30N 50°58' E 001°52'0 0.0
2019-Mar-12 15:00N 50°58' E 001°52'0 0.0
2019-Mar-12 14:30N 50°58' E 001°52'4 7.2
2019-Mar-12 14:00N 50°58' E 001°46'917.3
2019-Mar-12 13:31N 51°01' E 001°33'816.6
2019-Mar-12 13:01N 51°06' E 001°23'  
Track history (hours):
 
Tides and Currents Weather Stations Pressure Air Temp Water Temp Dewpoint Dewpoint Depression Visibility Wind Speed Wind Dir Waves Ship Positions

European Seaway

Operator: P & O Ferries

Last reported at 2019-Mar-22 11:58 UTC. Time now 2019-Mar-22 12:03 UTC.
Position N 51°07' E 001°20'.

Length 180 m; draft 5.5 m.

Type: Ship. MMSI: 232001040.

Date/timePositionNaut miles runAvg speedWind from/ knotsBaromVisibWave heightAir tempDewpointWater temp
2019-Mar-22 11:58N 51°07' E 001°20'816.3
2019-Mar-22 11:30N 51°05' E 001°32'918.6
2019-Mar-22 11:00N 50°59' E 001°43'510.9
2019-Mar-22 10:30N 50°58' E 001°52'0 0.0
2019-Mar-22 10:00N 50°58' E 001°52'1 1.2
2019-Mar-22 09:30N 50°58' E 001°51'917.1
2019-Mar-22 09:00N 50°59' E 001°37'1019.2
2019-Mar-22 08:30N 51°05' E 001°25'6 2.9
2019-Mar-22 06:31N 51°03' E 001°34'1019.7
2019-Mar-22 06:00N 50°58' E 001°47'2 4.6
2019-Mar-22 05:30N 50°58' E 001°51'0 0.0
2019-Mar-22 05:00N 50°58' E 001°51'0 0.4
2019-Mar-22 04:30N 50°58' E 001°51'816.3
2019-Mar-22 04:00N 50°59' E 001°38'1019.3
2019-Mar-22 03:30N 51°05' E 001°25'4 2.7
2019-Mar-22 02:05N 51°07' E 001°21'111.7
2019-Mar-22 02:00N 51°07' E 001°22'816.6
2019-Mar-22 01:30N 51°04' E 001°34'816.9
2019-Mar-22 01:00N 50°59' E 001°44'5 9.2
2019-Mar-22 00:30N 50°58' E 001°52'0 0.0
2019-Mar-22 00:00N 50°58' E 001°52'1 2.3
2019-Mar-21 23:30N 50°58' E 001°50'1020.1
2019-Mar-21 23:00N 51°01' E 001°34'1119.4
2019-Mar-21 22:28N 51°07' E 001°21'0 0.4
2019-Mar-21 21:22N 51°07' E 001°20'616.3
2019-Mar-21 21:00N 51°05' E 001°29'1020.0
2019-Mar-21 20:31N 50°59' E 001°41'612.2
2019-Mar-21 20:00N 50°58' E 001°51'0 0.0
2019-Mar-21 19:30N 50°58' E 001°51'0 0.2
2019-Mar-21 19:00N 50°58' E 001°51'714.7
2019-Mar-21 18:30N 50°59' E 001°39'1019.0
2019-Mar-21 18:00N 51°04' E 001°27'510.8
2019-Mar-21 17:30N 51°07' E 001°20'0 0.1
2019-Mar-21 16:41N 51°07' E 001°20'213.4
2019-Mar-21 16:30N 51°07' E 001°24'1019.5
2019-Mar-21 16:00N 51°01' E 001°37'918.3
2019-Mar-21 15:30N 50°58' E 001°50'0 0.9
2019-Mar-21 15:00N 50°58' E 001°51'0 0.0
2019-Mar-21 14:30N 50°58' E 001°51'713.9
2019-Mar-21 14:01N 50°59' E 001°40'1019.8
2019-Mar-21 13:30N 51°05' E 001°27'5 8.7
2019-Mar-21 12:54N 51°07' E 001°20'0 0.2
2019-Mar-21 12:13N 51°07' E 001°20'313.7
2019-Mar-21 12:01N 51°06' E 001°25'918.6
2019-Mar-21 11:31N 51°01' E 001°37'816.4
2019-Mar-21 11:01N 50°58' E 001°49'2 3.2
2019-Mar-21 10:30N 50°58' E 001°52'0 0.0
2019-Mar-21 10:00N 50°58' E 001°52'4 8.5
2019-Mar-21 09:30N 50°58' E 001°45'918.9
2019-Mar-21 09:00N 51°01' E 001°31'918.0
2019-Mar-21 08:30N 51°07' E 001°20'0 0.0
2019-Mar-21 07:11N 51°07' E 001°20'315.4
2019-Mar-21 07:00N 51°07' E 001°24'919.0
2019-Mar-21 06:31N 51°02' E 001°37'918.1
2019-Mar-21 06:00N 50°58' E 001°50'0 0.9
2019-Mar-21 05:30N 50°58' E 001°51'0 0.0
2019-Mar-21 05:00N 50°58' E 001°51'3 5.2
2019-Mar-21 04:30N 50°58' E 001°47'917.4
2019-Mar-21 04:00N 50°60' E 001°33'918.4
2019-Mar-21 03:30N 51°06' E 001°23'2 1.4
2019-Mar-21 02:07N 51°07' E 001°20'110.3
2019-Mar-21 01:59N 51°07' E 001°22'816.8
2019-Mar-21 01:30N 51°04' E 001°34'816.7
2019-Mar-21 01:00N 50°59' E 001°44'4 8.3
2019-Mar-21 00:30N 50°58' E 001°51'0 0.0
2019-Mar-21 00:00N 50°58' E 001°51'3 5.2
2019-Mar-20 23:30N 50°58' E 001°47'1020.5
2019-Mar-20 23:01N 51°01' E 001°31'9 6.2
2019-Mar-20 21:30N 51°07' E 001°20'917.4
2019-Mar-20 21:00N 51°03' E 001°32'1019.8
2019-Mar-20 20:30N 50°58' E 001°46'3 6.6
2019-Mar-20 20:01N 50°58' E 001°51'0 0.0
2019-Mar-20 19:30N 50°58' E 001°51'3 5.2
2019-Mar-20 19:00N 50°58' E 001°47'817.0
2019-Mar-20 18:30N 50°59' E 001°34'1019.4
2019-Mar-20 18:00N 51°06' E 001°23'2 1.5
2019-Mar-20 16:46N 51°07' E 001°20'415.3
2019-Mar-20 16:30N 51°06' E 001°26'1019.6
2019-Mar-20 16:00N 51°00' E 001°39'815.5
2019-Mar-20 15:31N 50°58' E 001°51'0 0.3
2019-Mar-20 15:00N 50°58' E 001°51'0 0.1
2019-Mar-20 14:30N 50°58' E 001°51'816.1
2019-Mar-20 14:01N 50°59' E 001°38'1019.6
2019-Mar-20 13:30N 51°05' E 001°25'4 3.0
2019-Mar-20 12:08N 51°07' E 001°20'211.8
2019-Mar-20 12:00N 51°07' E 001°23'917.8
2019-Mar-20 11:30N 51°04' E 001°36'917.7
2019-Mar-20 11:00N 50°58' E 001°47'3 6.4
2019-Mar-20 10:30N 50°58' E 001°52'0 0.0
2019-Mar-20 09:59N 50°58' E 001°52'1 3.1
2019-Mar-20 09:30N 50°58' E 001°49'1020.2
2019-Mar-20 09:00N 50°60' E 001°33'919.0
2019-Mar-20 08:30N 51°06' E 001°23'2 1.1
2019-Mar-20 07:02N 51°07' E 001°20'0 9.6
2019-Mar-20 07:00N 51°07' E 001°21'1019.3
2019-Mar-20 06:30N 51°03' E 001°34'1019.5
2019-Mar-20 06:00N 50°58' E 001°48'2 1.9
2019-Mar-20 05:00N 50°58' E 001°51'2 3.4
2019-Mar-20 04:30N 50°58' E 001°48'917.5
2019-Mar-20 04:01N 50°60' E 001°35'1019.3
2019-Mar-20 03:31N 51°06' E 001°23'2 1.6
2019-Mar-20 02:07N 51°07' E 001°20'0 2.4
2019-Mar-20 02:00N 51°07' E 001°21'816.9
2019-Mar-20 01:30N 51°03' E 001°33'816.9
2019-Mar-20 01:01N 50°59' E 001°44'5 9.0
2019-Mar-20 00:30N 50°58' E 001°51'0 0.0
2019-Mar-20 00:00N 50°58' E 001°51'0 0.0
2019-Mar-19 23:30N 50°58' E 001°51'2 3.3
2019-Mar-19 23:00N 50°58' E 001°48'1019.5
2019-Mar-19 22:31N 51°00' E 001°33'917.8
2019-Mar-19 22:01N 51°06' E 001°23'2 1.6
2019-Mar-19 20:53N 51°07' E 001°20'513.5
2019-Mar-19 20:31N 51°05' E 001°27'1020.1
2019-Mar-19 20:00N 50°60' E 001°41'612.9
2019-Mar-19 19:30N 50°58' E 001°51'0 0.0
2019-Mar-19 19:00N 50°58' E 001°51'3 5.5
2019-Mar-19 18:30N 50°58' E 001°47'917.9
2019-Mar-19 18:00N 51°02' E 001°34'1019.1
2019-Mar-19 17:30N 51°07' E 001°21'1 0.6
2019-Mar-19 16:32N 51°07' E 001°20'0 2.8
2019-Mar-19 16:28N 51°07' E 001°20'918.9
2019-Mar-19 16:00N 51°04' E 001°33'1020.0
2019-Mar-19 15:31N 50°58' E 001°46'3 5.9
2019-Mar-19 15:00N 50°58' E 001°51'0 0.0
2019-Mar-19 14:30N 50°58' E 001°51'0 0.7
2019-Mar-19 14:00N 50°58' E 001°51'917.3
2019-Mar-19 13:30N 51°00' E 001°37'1020.2
2019-Mar-19 13:01N 51°05' E 001°23'3 2.2
2019-Mar-19 11:45N 51°07' E 001°20'312.0
2019-Mar-19 11:30N 51°07' E 001°25'918.9
2019-Mar-19 11:00N 51°02' E 001°37'816.6
2019-Mar-19 10:31N 50°58' E 001°49'1 2.1
2019-Mar-19 10:00N 50°58' E 001°51'0 0.0
2019-Mar-19 09:30N 50°58' E 001°51'611.1
2019-Mar-19 09:01N 50°58' E 001°42'918.4
2019-Mar-19 08:31N 51°03' E 001°30'8 6.8
2019-Mar-19 07:24N 51°07' E 001°20'0 0.3
2019-Mar-19 07:00N 51°07' E 001°20'918.1
2019-Mar-19 06:30N 51°03' E 001°33'1019.9
2019-Mar-19 06:00N 50°58' E 001°47'3 5.4
2019-Mar-19 05:30N 50°58' E 001°51'0 0.0
2019-Mar-19 05:00N 50°58' E 001°51'1 1.8
2019-Mar-19 04:31N 50°58' E 001°50'917.3
2019-Mar-19 04:01N 51°01' E 001°36'1019.9
2019-Mar-19 03:31N 51°06' E 001°23'2 1.6
2019-Mar-19 02:06N 51°07' E 001°20'0 0.8
2019-Mar-19 02:00N 51°07' E 001°20'816.2
2019-Mar-19 01:30N 51°05' E 001°33'816.7
2019-Mar-19 01:00N 50°59' E 001°43'510.8
2019-Mar-19 00:30N 50°58' E 001°51'0 0.0
2019-Mar-19 00:00N 50°58' E 001°51'0 0.1
2019-Mar-18 23:30N 50°58' E 001°51'816.8
2019-Mar-18 23:00N 50°59' E 001°38'1019.9
2019-Mar-18 22:30N 51°05' E 001°25'4 2.8
2019-Mar-18 21:07N 51°07' E 001°20'1 6.0
2019-Mar-18 20:59N 51°07' E 001°21'817.3
2019-Mar-18 20:30N 51°04' E 001°33'919.0
2019-Mar-18 20:01N 50°58' E 001°45'4 7.0
2019-Mar-18 19:30N 50°58' E 001°51'0 0.0
2019-Mar-18 19:00N 50°58' E 001°51'510.6
2019-Mar-18 18:30N 50°58' E 001°43'816.8
2019-Mar-18 18:00N 51°02' E 001°30'816.9
2019-Mar-18 17:30N 51°07' E 001°20'0 0.1
2019-Mar-18 16:40N 51°07' E 001°20'211.5
2019-Mar-18 16:31N 51°07' E 001°23'917.8
2019-Mar-18 16:01N 51°01' E 001°34'918.2
2019-Mar-18 15:30N 50°58' E 001°48'2 3.9
2019-Mar-18 15:00N 50°58' E 001°51'0 0.0
2019-Mar-18 14:30N 50°58' E 001°51'5 9.1
2019-Mar-18 14:00N 50°58' E 001°44'917.6
2019-Mar-18 13:30N 51°02' E 001°31'917.7
2019-Mar-18 13:01N 51°07' E 001°20'1 0.6
2019-Mar-18 12:00N 51°07' E 001°20'714.8
2019-Mar-18 11:30N 51°04' E 001°31'816.9
2019-Mar-18 11:00N 50°60' E 001°42'611.2
2019-Mar-18 10:29N 50°58' E 001°51'0 0.0
2019-Mar-18 10:00N 50°58' E 001°51'0 0.9
2019-Mar-18 09:30N 50°58' E 001°50'918.8
2019-Mar-18 09:00N 50°58' E 001°35'918.1
2019-Mar-18 08:30N 51°04' E 001°25'4 4.0
2019-Mar-18 07:27N 51°07' E 001°20'1 2.1
2019-Mar-18 07:00N 51°07' E 001°22'918.5
2019-Mar-18 06:30N 51°03' E 001°34'918.5
2019-Mar-18 06:00N 50°58' E 001°47'3 6.3
2019-Mar-18 05:30N 50°58' E 001°52'0 0.0
2019-Mar-18 05:00N 50°58' E 001°52'3 6.4
2019-Mar-18 04:31N 50°58' E 001°47'917.5
2019-Mar-18 04:00N 51°01' E 001°34'10 6.3
2019-Mar-18 02:21N 51°07' E 001°20'616.1
2019-Mar-18 02:01N 51°05' E 001°28'918.9
2019-Mar-18 01:31N 50°60' E 001°41'714.0
2019-Mar-18 01:01N 50°58' E 001°52'0 0.2
2019-Mar-18 00:30N 50°58' E 001°52'0 0.0
2019-Mar-18 00:00N 50°58' E 001°52'0 0.0
2019-Mar-17 23:30N 50°58' E 001°52'4 8.2
2019-Mar-17 23:00N 50°58' E 001°45'917.8
2019-Mar-17 22:31N 51°01' E 001°32'10 6.2
2019-Mar-17 20:56N 51°07' E 001°20'715.5
2019-Mar-17 20:31N 51°06' E 001°30'918.1
2019-Mar-17 20:00N 50°60' E 001°41'713.3
2019-Mar-17 19:30N 50°58' E 001°51'0 0.1
2019-Mar-17 19:00N 50°58' E 001°51'3 6.2
2019-Mar-17 18:30N 50°58' E 001°46'918.6
2019-Mar-17 18:00N 51°01' E 001°32'1018.4
2019-Mar-17 17:29N 51°07' E 001°20'0 0.1
2019-Mar-17 16:31N 51°07' E 001°20'815.9
2019-Mar-17 16:00N 51°04' E 001°32'919.0
2019-Mar-17 15:31N 50°59' E 001°44'4 8.9
2019-Mar-17 15:00N 50°58' E 001°51'0 0.0
2019-Mar-17 14:30N 50°58' E 001°51'0 0.9
2019-Mar-17 14:01N 50°58' E 001°50'917.1
2019-Mar-17 13:31N 50°60' E 001°37'1020.2
2019-Mar-17 13:00N 51°06' E 001°24'3 2.7
2019-Mar-17 11:59N 51°07' E 001°20'715.4
2019-Mar-17 11:31N 51°04' E 001°31'918.5
2019-Mar-17 11:01N 50°59' E 001°43'510.1
2019-Mar-17 10:29N 50°58' E 001°51'0 0.0
2019-Mar-17 10:00N 50°58' E 001°51'4 8.3
2019-Mar-17 09:30N 50°59' E 001°45'1 2.2
2019-Mar-17 08:59N 51°00' E 001°46'0 0.0
2019-Mar-17 08:29N 51°00' E 001°46'0 0.0
2019-Mar-17 07:59N 51°00' E 001°46'0 0.0
2019-Mar-17 07:26N 51°00' E 001°46'0 0.1
2019-Mar-17 06:59N 51°00' E 001°46'0 0.1
2019-Mar-17 06:29N 51°00' E 001°46'0 0.1
2019-Mar-17 05:59N 51°00' E 001°46'0 0.1
2019-Mar-17 05:29N 51°00' E 001°46'0 0.0
2019-Mar-17 04:59N 51°00' E 001°46'0 0.2
2019-Mar-17 04:30N 51°00' E 001°46'2 5.0
2019-Mar-17 04:01N 50°58' E 001°48'3 5.3
2019-Mar-17 03:30N 50°58' E 001°52'0 0.0
2019-Mar-17 03:00N 50°58' E 001°52'0 0.0
2019-Mar-17 02:30N 50°58' E 001°52'0 0.0
2019-Mar-17 02:00N 50°58' E 001°52'0 0.0
2019-Mar-17 01:30N 50°58' E 001°52'0 0.5
2019-Mar-17 01:00N 50°58' E 001°52'0 0.2
2019-Mar-17 00:30N 50°58' E 001°51'4 8.6
2019-Mar-17 00:00N 50°58' E 001°45'3 6.0
2019-Mar-16 23:31N 50°58' E 001°40'5 9.0
2019-Mar-16 23:00N 51°01' E 001°35'918.2
2019-Mar-16 22:30N 51°06' E 001°23'2 1.4
2019-Mar-16 21:01N 51°07' E 001°20'0 0.8
2019-Mar-16 20:56N 51°07' E 001°20'4 8.8
2019-Mar-16 20:30N 51°08' E 001°26'3 6.7
2019-Mar-16 20:01N 51°06' E 001°29'917.5
2019-Mar-16 19:31N 51°01' E 001°40'714.3
2019-Mar-16 19:01N 50°58' E 001°51'0 1.0
2019-Mar-16 18:30N 50°58' E 001°52'0 0.0
2019-Mar-16 18:00N 50°58' E 001°52'3 6.3
2019-Mar-16 17:30N 50°58' E 001°47'4 7.8
2019-Mar-16 17:00N 50°58' E 001°41'816.1
2019-Mar-16 16:31N 51°03' E 001°30'8 4.3
2019-Mar-16 14:45N 51°07' E 001°20'2 9.7
2019-Mar-16 14:31N 51°07' E 001°24'1 2.6
2019-Mar-16 14:00N 51°07' E 001°26'3 6.6
2019-Mar-16 13:30N 51°06' E 001°31'612.6
2019-Mar-16 13:00N 51°01' E 001°37'816.3
2019-Mar-16 12:30N 50°58' E 001°49'1 2.9
2019-Mar-16 12:00N 50°58' E 001°52'0 0.0
2019-Mar-16 11:30N 50°58' E 001°52'3 6.3
2019-Mar-16 11:01N 50°58' E 001°47'918.6
2019-Mar-16 10:30N 51°01' E 001°33'10 6.1
2019-Mar-16 08:52N 51°07' E 001°20'3 9.1
2019-Mar-16 08:31N 51°07' E 001°25'816.1
2019-Mar-16 08:01N 51°02' E 001°36'816.7
2019-Mar-16 07:30N 50°58' E 001°48'2 4.9
2019-Mar-16 07:00N 50°58' E 001°51'0 0.0
2019-Mar-16 06:30N 50°58' E 001°51'510.2
2019-Mar-16 06:01N 50°58' E 001°43'1019.4
2019-Mar-16 05:30N 51°02' E 001°30'8 5.1
2019-Mar-16 03:56N 51°07' E 001°20'511.0
2019-Mar-16 03:30N 51°06' E 001°27'917.8
2019-Mar-16 03:00N 51°01' E 001°39'815.9
2019-Mar-16 02:30N 50°58' E 001°51'0 0.5
2019-Mar-16 02:00N 50°58' E 001°51'0 0.0
2019-Mar-16 01:30N 50°58' E 001°51'0 0.0
2019-Mar-16 01:00N 50°58' E 001°51'0 0.0
2019-Mar-16 00:31N 50°58' E 001°51'0 0.0
2019-Mar-16 00:00N 50°58' E 001°51'0 0.0
2019-Mar-15 23:30N 50°58' E 001°51'0 0.0
2019-Mar-15 23:00N 50°58' E 001°51'2 3.7
2019-Mar-15 22:30N 50°58' E 001°48'511.2
2019-Mar-15 22:00N 50°59' E 001°39'1019.4
2019-Mar-15 21:30N 51°05' E 001°27'5 2.6
2019-Mar-15 19:36N 51°07' E 001°20'1 7.5
2019-Mar-15 19:29N 51°07' E 001°21'817.3
2019-Mar-15 19:00N 51°03' E 001°33'816.8
2019-Mar-15 18:30N 50°58' E 001°44'5 9.6
2019-Mar-15 18:00N 50°58' E 001°52'0 0.0
2019-Mar-15 17:30N 50°58' E 001°52'3 5.4
2019-Mar-15 17:01N 50°58' E 001°47'510.2
2019-Mar-15 16:30N 50°58' E 001°39'4 8.0
2019-Mar-15 16:01N 51°00' E 001°34'918.9
2019-Mar-15 15:31N 51°06' E 001°23'2 1.6
2019-Mar-15 14:23N 51°07' E 001°21'616.4
2019-Mar-15 14:00N 51°05' E 001°30'816.7
2019-Mar-15 13:30N 50°60' E 001°40'815.2
2019-Mar-15 13:00N 50°58' E 001°52'0 0.1
2019-Mar-15 12:30N 50°58' E 001°52'0 0.3
2019-Mar-15 12:00N 50°58' E 001°51'612.0
2019-Mar-15 11:31N 50°58' E 001°42'4 9.0
2019-Mar-15 11:00N 50°59' E 001°35'918.6
2019-Mar-15 10:30N 51°05' E 001°24'3 3.0
2019-Mar-15 09:22N 51°07' E 001°20'513.4
2019-Mar-15 09:00N 51°07' E 001°28'917.2
2019-Mar-15 08:30N 51°02' E 001°39'815.8
2019-Mar-15 08:00N 50°58' E 001°50'1 1.6
2019-Mar-15 07:30N 50°58' E 001°52'0 0.1
2019-Mar-15 07:00N 50°58' E 001°52'4 8.3
2019-Mar-15 06:30N 50°58' E 001°45'815.2
2019-Mar-15 06:01N 51°01' E 001°34'1018.8
2019-Mar-15 05:30N 51°07' E 001°22'1 1.0
2019-Mar-15 04:09N 51°07' E 001°20'110.2
2019-Mar-15 04:00N 51°07' E 001°22'816.3
2019-Mar-15 03:30N 51°05' E 001°35'917.9
2019-Mar-15 03:00N 50°59' E 001°44'4 8.6
2019-Mar-15 02:30N 50°58' E 001°51'0 0.0
2019-Mar-15 02:01N 50°58' E 001°51'0 0.0
2019-Mar-15 01:30N 50°58' E 001°51'0 0.0
2019-Mar-15 01:00N 50°58' E 001°51'0 0.0
2019-Mar-15 00:30N 50°58' E 001°51'0 0.0
2019-Mar-15 00:01N 50°58' E 001°51'0 0.0
2019-Mar-14 23:30N 50°58' E 001°51'0 0.0
2019-Mar-14 23:00N 50°58' E 001°51'1 2.8
2019-Mar-14 22:30N 50°58' E 001°49'917.7
2019-Mar-14 22:00N 51°00' E 001°35'918.9
2019-Mar-14 21:31N 51°06' E 001°23'2 2.1
2019-Mar-14 20:22N 51°07' E 001°20'515.1
2019-Mar-14 20:00N 51°06' E 001°28'918.4
2019-Mar-14 19:30N 51°01' E 001°41'713.9
2019-Mar-14 19:01N 50°58' E 001°51'0 0.3
2019-Mar-14 18:30N 50°58' E 001°51'0 0.0
2019-Mar-14 18:00N 50°58' E 001°51'713.9
2019-Mar-14 17:30N 50°59' E 001°40'1019.4
2019-Mar-14 17:00N 51°04' E 001°27'5 3.4
2019-Mar-14 15:23N 51°07' E 001°20'410.7
2019-Mar-14 15:01N 51°06' E 001°26'917.0
2019-Mar-14 14:31N 51°01' E 001°37'815.8
2019-Mar-14 14:00N 50°58' E 001°49'2 3.4
2019-Mar-14 13:30N 50°58' E 001°52'0 0.0
2019-Mar-14 13:00N 50°58' E 001°52'3 6.8
2019-Mar-14 12:30N 50°58' E 001°46'918.2
2019-Mar-14 12:00N 51°02' E 001°33'1018.2
2019-Mar-14 11:29N 51°07' E 001°21'0 0.4
2019-Mar-14 10:18N 51°07' E 001°20'3 9.7
2019-Mar-14 10:01N 51°06' E 001°24'816.9
2019-Mar-14 09:31N 51°02' E 001°36'816.2
2019-Mar-14 09:01N 50°58' E 001°47'3 5.8
2019-Mar-14 08:30N 50°58' E 001°52'0 0.0
2019-Mar-14 08:01N 50°58' E 001°52'1 1.2
2019-Mar-14 07:30N 50°58' E 001°51'816.2
2019-Mar-14 07:01N 50°59' E 001°38'918.7
2019-Mar-14 06:31N 51°05' E 001°26'5 2.9
2019-Mar-14 04:54N 51°07' E 001°20'614.8
2019-Mar-14 04:30N 51°05' E 001°29'917.1
2019-Mar-14 04:00N 51°00' E 001°40'714.3
2019-Mar-14 03:30N 50°58' E 001°51'0 0.9
2019-Mar-14 03:00N 50°58' E 001°51'0 0.0
2019-Mar-14 02:30N 50°58' E 001°51'2 4.9
2019-Mar-14 02:00N 50°58' E 001°48'3 5.3
2019-Mar-14 01:30N 50°58' E 001°43'3 5.2
2019-Mar-14 01:00N 50°59' E 001°39'816.3
2019-Mar-14 00:30N 51°04' E 001°29'7 4.1
2019-Mar-13 22:52N 51°07' E 001°20'615.6
2019-Mar-13 22:31N 51°05' E 001°28'918.7
2019-Mar-13 22:01N 50°60' E 001°41'713.2
2019-Mar-13 21:30N 50°58' E 001°51'0 0.0
2019-Mar-13 21:00N 50°58' E 001°51'0 0.0
2019-Mar-13 20:30N 50°58' E 001°51'5 9.9
2019-Mar-13 20:00N 50°58' E 001°43'918.9
2019-Mar-13 19:30N 51°03' E 001°30'8 4.7
2019-Mar-13 17:53N 51°07' E 001°20'514.0
2019-Mar-13 17:30N 51°05' E 001°28'917.9
2019-Mar-13 17:00N 51°00' E 001°39'815.2
2019-Mar-13 16:30N 50°58' E 001°51'0 0.4
2019-Mar-13 16:00N 50°58' E 001°51'0 0.1
2019-Mar-13 15:30N 50°58' E 001°51'816.9
2019-Mar-13 15:00N 50°60' E 001°38'918.9
2019-Mar-13 14:30N 51°06' E 001°26'4 2.6
2019-Mar-13 12:53N 51°07' E 001°20'2 5.0
2019-Mar-13 12:30N 51°07' E 001°23'3 7.0
2019-Mar-13 12:00N 51°06' E 001°28'918.0
2019-Mar-13 11:30N 51°01' E 001°40'714.7
2019-Mar-13 11:00N 50°58' E 001°51'0 0.1
2019-Mar-13 10:31N 50°58' E 001°51'0 0.3
2019-Mar-13 10:00N 50°58' E 001°51'815.5
2019-Mar-13 09:31N 50°59' E 001°39'918.9
2019-Mar-13 09:01N 51°04' E 001°26'5 2.6
2019-Mar-13 07:12N 51°07' E 001°20'2 8.6
2019-Mar-13 07:00N 51°07' E 001°23'2 3.8
2019-Mar-13 06:30N 51°06' E 001°25'815.4
2019-Mar-13 06:00N 51°02' E 001°36'816.1
2019-Mar-13 05:30N 50°58' E 001°47'3 5.3
2019-Mar-13 05:00N 50°58' E 001°51'0 0.0
2019-Mar-13 04:30N 50°58' E 001°51'0 1.0
2019-Mar-13 04:01N 50°58' E 001°50'1019.5
2019-Mar-13 03:30N 51°00' E 001°35'1019.0
2019-Mar-13 03:00N 51°06' E 001°23'2 1.5
2019-Mar-13 01:29N 51°07' E 001°20'714.4
2019-Mar-13 01:01N 51°04' E 001°30'816.6
2019-Mar-13 00:31N 50°60' E 001°41'713.5
2019-Mar-13 00:00N 50°58' E 001°52'0 0.1
2019-Mar-12 23:30N 50°58' E 001°52'0 0.0
2019-Mar-12 23:00N 50°58' E 001°52'0 0.0
2019-Mar-12 22:30N 50°58' E 001°52'0 0.0
2019-Mar-12 22:00N 50°58' E 001°52'0 0.0
2019-Mar-12 21:30N 50°58' E 001°52'0 0.0
2019-Mar-12 21:00N 50°58' E 001°52'0 0.0
2019-Mar-12 20:30N 50°58' E 001°52'1 1.3
2019-Mar-12 20:00N 50°58' E 001°51'612.9
2019-Mar-12 19:31N 50°58' E 001°40'918.2
2019-Mar-12 19:00N 51°03' E 001°28'6 4.4
2019-Mar-12 17:32N 51°07' E 001°20'0 6.1
2019-Mar-12 17:30N 51°07' E 001°20'815.6
2019-Mar-12 17:01N 51°05' E 001°32'917.2
2019-Mar-12 16:31N 50°60' E 001°43'611.5
2019-Mar-12 16:00N 50°58' E 001°52'0 0.0
2019-Mar-12 15:30N 50°58' E 001°52'0 0.0
2019-Mar-12 15:00N 50°58' E 001°52'0 0.0
2019-Mar-12 14:30N 50°58' E 001°52'4 7.2
2019-Mar-12 14:00N 50°58' E 001°46'917.3
2019-Mar-12 13:31N 51°01' E 001°33'816.6
2019-Mar-12 13:01N 51°06' E 001°23'  

Dump ship's entire track history